createdAt,value
2019-03-19T00:00:02.126Z,92.09
2019-03-19T00:05:25.151Z,92.85
2019-03-19T00:10:29.306Z,94.07
2019-03-19T00:15:33.803Z,93.91
2019-03-19T00:20:40.289Z,94.77
2019-03-19T00:25:45.180Z,95.28
2019-03-19T00:30:49.264Z,94.57
2019-03-19T00:35:53.371Z,95.27
2019-03-19T00:41:16.452Z,95.25
2019-03-19T00:46:20.473Z,93.86
2019-03-19T00:51:24.525Z,95.21
2019-03-19T00:56:28.965Z,95.45
2019-03-19T01:01:33.046Z,96.75
2019-03-19T01:06:37.140Z,96.05
2019-03-19T01:11:41.193Z,96.04
2019-03-19T01:17:04.350Z,94.61
2019-03-19T01:22:08.389Z,93.38
2019-03-19T01:27:12.461Z,92.35
2019-03-19T01:32:16.538Z,90.85
2019-03-19T01:37:39.639Z,90.65
2019-03-19T01:42:43.743Z,90.47
2019-03-19T01:47:47.803Z,89.97
2019-03-19T01:52:51.856Z,90.43
2019-03-19T01:57:56.294Z,91.00
2019-03-19T02:03:01.049Z,90.46
2019-03-19T02:08:05.173Z,90.65
2019-03-19T02:13:09.209Z,90.67
2019-03-19T02:18:13.295Z,91.08
2019-03-19T02:23:17.687Z,91.02
2019-03-19T02:28:21.745Z,91.04
2019-03-19T02:33:26.154Z,91.78
2019-03-19T02:38:30.227Z,93.12
2019-03-19T02:43:34.309Z,93.79
2019-03-19T02:48:38.323Z,93.98
2019-03-19T02:53:42.403Z,93.71
2019-03-19T02:58:46.565Z,93.72
2019-03-19T03:03:50.601Z,93.40
2019-03-19T03:08:55.007Z,94.72
2019-03-19T03:13:59.083Z,96.04
2019-03-19T03:24:18.191Z,97.13
2019-03-19T03:29:22.343Z,98.41
2019-03-19T03:34:27.142Z,99.01
2019-03-19T03:39:31.280Z,98.48
2019-03-19T03:44:35.447Z,98.58
2019-03-19T03:49:39.432Z,99.15
2019-03-19T03:54:43.985Z,99.32
2019-03-19T03:59:48.065Z,98.96
2019-03-19T04:04:52.130Z,98.70
2019-03-19T04:09:56.178Z,98.50
2019-03-19T04:15:00.438Z,97.07
2019-03-19T04:20:05.288Z,96.38
2019-03-19T04:30:45.724Z,96.05
2019-03-19T04:35:49.808Z,96.85
2019-03-19T04:40:53.901Z,98.63
2019-03-19T04:45:57.976Z,99.66
2019-03-19T04:51:02.019Z,100.00
2019-03-19T04:56:06.098Z,100.00
2019-03-19T05:01:10.130Z,99.97
2019-03-19T05:06:14.186Z,99.15
2019-03-19T05:11:18.242Z,98.33
2019-03-19T05:16:22.299Z,98.34
2019-03-19T05:21:26.388Z,97.90
2019-03-19T05:26:30.438Z,97.07
2019-03-19T05:31:34.786Z,96.66
2019-03-19T05:36:38.789Z,96.63
2019-03-19T05:41:43.676Z,96.82
2019-03-19T05:46:48.066Z,96.00
2019-03-19T05:51:52.206Z,96.51
2019-03-19T05:56:56.252Z,95.87
2019-03-19T06:02:00.285Z,94.72
2019-03-19T06:07:04.526Z,94.56
2019-03-19T06:12:08.617Z,94.41
2019-03-19T06:17:12.627Z,93.09
2019-03-19T06:22:16.797Z,92.32
2019-03-19T06:27:39.895Z,92.32
2019-03-19T06:32:43.983Z,92.00
2019-03-19T06:37:47.991Z,91.89
2019-03-19T06:42:51.999Z,90.69
2019-03-19T06:47:56.597Z,90.43
2019-03-19T06:53:00.727Z,90.39
2019-03-19T06:58:10.842Z,90.55
2019-03-19T07:03:20.942Z,89.43
2019-03-19T07:08:25.009Z,88.79
2019-03-19T07:13:29.007Z,87.84
2019-03-19T07:18:34.013Z,87.33
2019-03-19T07:23:38.158Z,86.63
2019-03-19T07:28:42.217Z,86.24
2019-03-19T07:33:46.949Z,85.17
2019-03-19T07:38:51.082Z,83.97
2019-03-19T07:43:55.914Z,81.96
2019-03-19T07:49:00.103Z,83.93
2019-03-19T07:54:04.618Z,83.23
2019-03-19T07:59:08.716Z,83.39
2019-03-19T08:04:12.891Z,82.10
2019-03-19T08:09:17.052Z,79.83
2019-03-19T08:14:21.144Z,76.46
2019-03-19T08:19:25.245Z,74.53
2019-03-19T08:24:29.295Z,75.26
2019-03-19T08:29:34.744Z,73.84
2019-03-19T08:34:38.949Z,72.81
2019-03-19T08:39:43.071Z,72.75
2019-03-19T08:44:47.147Z,73.04
2019-03-19T08:49:51.271Z,72.26
2019-03-19T08:55:00.827Z,68.21
2019-03-19T09:00:06.962Z,65.25
2019-03-19T09:05:11.017Z,65.33
2019-03-19T09:10:15.688Z,63.47
2019-03-19T09:15:19.825Z,64.62
2019-03-19T09:20:23.963Z,66.52
2019-03-19T09:25:28.120Z,66.80
2019-03-19T09:30:32.284Z,65.42
2019-03-19T09:35:36.355Z,61.98
2019-03-19T09:40:40.403Z,61.00
2019-03-19T09:45:44.499Z,62.05
2019-03-19T09:50:48.540Z,62.03
2019-03-19T09:55:53.518Z,55.15
2019-03-19T10:00:57.878Z,48.98
2019-03-19T10:06:13.694Z,46.83
2019-03-19T10:11:08.738Z,48.02
2019-03-19T10:16:12.789Z,52.16
2019-03-19T10:21:16.854Z,54.63
2019-03-19T10:26:20.930Z,54.23
2019-03-19T10:31:25.048Z,51.12
2019-03-19T10:36:29.138Z,45.95
2019-03-19T10:41:33.295Z,42.35
2019-03-19T10:46:37.361Z,43.76
2019-03-19T10:51:41.444Z,48.46
2019-03-19T10:56:45.766Z,51.44
2019-03-19T11:01:51.478Z,49.76
2019-03-19T11:06:55.741Z,60.31
2019-03-19T11:11:59.757Z,64.03
2019-03-19T11:17:04.180Z,57.53
2019-03-19T11:22:08.285Z,57.53
2019-03-19T11:27:12.907Z,52.34
2019-03-19T11:32:18.318Z,51.79
2019-03-19T11:37:22.379Z,48.64
2019-03-19T11:42:26.447Z,44.42
2019-03-19T11:47:30.507Z,43.78
2019-03-19T11:52:35.262Z,46.60
2019-03-19T11:57:39.780Z,46.50
2019-03-19T12:02:46.226Z,45.51
2019-03-19T12:07:50.897Z,47.30
2019-03-19T12:12:54.973Z,49.88
2019-03-19T12:17:59.292Z,50.33
2019-03-19T12:23:03.932Z,51.71
2019-03-19T12:28:07.973Z,54.90
2019-03-19T12:33:12.143Z,56.57
2019-03-19T12:38:16.189Z,52.62
2019-03-19T12:43:21.223Z,52.62
2019-03-19T12:48:25.711Z,53.39
2019-03-19T12:53:29.751Z,54.09
2019-03-19T12:58:33.959Z,53.87
2019-03-19T13:03:38.050Z,53.96
2019-03-19T13:08:42.922Z,53.51
2019-03-19T13:13:47.347Z,49.59
2019-03-19T13:18:53.827Z,50.31
2019-03-19T13:23:58.654Z,48.11
2019-03-19T13:29:03.080Z,46.79
2019-03-19T13:34:07.284Z,50.20
2019-03-19T13:39:12.463Z,49.40
2019-03-19T13:44:16.929Z,52.09
2019-03-19T13:49:21.309Z,50.45
2019-03-19T13:54:44.411Z,50.67
2019-03-19T14:00:09.364Z,50.04
2019-03-19T14:05:14.839Z,48.93
2019-03-19T14:16:14.937Z,50.81
2019-03-19T14:21:39.218Z,52.41
2019-03-19T14:43:39.469Z,44.50
2019-03-19T14:48:45.216Z,46.46
2019-03-19T14:53:51.296Z,47.03
2019-03-19T14:58:55.577Z,47.59
2019-03-19T15:03:59.924Z,48.60
2019-03-19T15:09:05.877Z,45.69
2019-03-19T15:14:13.695Z,44.05
2019-03-19T15:19:18.401Z,46.12
2019-03-19T15:24:22.612Z,45.36
2019-03-19T15:29:26.673Z,49.00
2019-03-19T15:34:31.073Z,49.00
2019-03-19T15:39:35.161Z,50.76
2019-03-19T15:44:39.370Z,51.17
2019-03-19T15:49:43.430Z,51.63
2019-03-19T15:54:47.458Z,52.17
2019-03-19T15:59:51.608Z,52.82
2019-03-19T16:04:55.678Z,53.43
2019-03-19T16:10:00.040Z,53.55
2019-03-19T16:15:04.822Z,54.43
2019-03-19T16:20:11.322Z,54.41
2019-03-19T16:25:15.506Z,53.89
2019-03-19T16:30:19.793Z,54.23
2019-03-19T16:35:23.964Z,54.17
2019-03-19T16:40:28.368Z,55.85
2019-03-19T16:45:32.470Z,57.06
2019-03-19T16:50:36.484Z,56.95
2019-03-19T16:55:40.633Z,58.70
2019-03-19T17:00:45.034Z,60.32
2019-03-19T17:05:49.113Z,61.50
2019-03-19T17:10:53.212Z,62.49
2019-03-19T17:15:57.321Z,62.50
2019-03-19T17:21:01.368Z,62.92
2019-03-19T17:26:05.480Z,63.52
2019-03-19T17:31:09.884Z,64.72
2019-03-19T17:36:14.036Z,66.05
2019-03-19T17:41:18.102Z,67.70
2019-03-19T17:46:22.231Z,69.27
2019-03-19T17:51:26.296Z,70.00
2019-03-19T17:56:30.305Z,72.41
2019-03-19T18:01:35.928Z,74.67
2019-03-19T18:06:40.251Z,77.41
2019-03-19T18:11:44.289Z,78.79
2019-03-19T18:16:48.280Z,80.01
2019-03-19T18:21:52.455Z,81.28
2019-03-19T18:26:56.645Z,82.37
2019-03-19T18:32:00.978Z,82.65
2019-03-19T18:37:05.116Z,84.06
2019-03-19T18:42:09.177Z,85.80
2019-03-19T18:47:13.774Z,87.58
2019-03-19T18:52:17.873Z,87.95
2019-03-19T18:57:22.613Z,88.97
2019-03-19T19:02:27.586Z,90.64
2019-03-19T19:07:32.230Z,91.66
2019-03-19T19:12:36.783Z,92.75
2019-03-19T19:17:44.479Z,92.58
2019-03-19T19:22:50.651Z,92.81
2019-03-19T19:27:55.083Z,93.02
2019-03-19T19:33:02.171Z,94.36
2019-03-19T19:38:06.244Z,95.96
2019-03-19T19:43:10.677Z,96.64
2019-03-19T19:48:15.381Z,97.00
2019-03-19T19:53:22.520Z,97.60
2019-03-19T19:58:27.242Z,97.70
2019-03-19T20:03:56.393Z,97.75
2019-03-19T20:09:06.568Z,98.71
2019-03-19T20:14:11.401Z,99.25
2019-03-19T20:19:16.012Z,100.00
2019-03-19T20:24:20.274Z,100.00
2019-03-19T20:29:25.965Z,99.90
2019-03-19T20:34:30.504Z,99.94
2019-03-19T20:39:36.136Z,99.80
2019-03-19T20:44:40.245Z,99.60
2019-03-19T20:49:47.877Z,99.37
2019-03-19T20:54:50.172Z,99.76
2019-03-19T20:59:54.704Z,100.00
2019-03-19T21:04:58.950Z,100.00
2019-03-19T21:15:56.460Z,100.00
2019-03-19T21:21:20.986Z,100.00
2019-03-19T21:26:25.321Z,100.00
2019-03-19T21:42:24.745Z,100.00
2019-03-19T21:53:06.371Z,100.00
2019-03-19T21:58:17.045Z,100.00
2019-03-19T22:03:40.720Z,100.00
2019-03-19T22:08:55.720Z,100.00
2019-03-19T22:25:10.786Z,100.00
2019-03-19T22:35:53.372Z,100.00
2019-03-19T22:40:59.152Z,100.00
2019-03-19T22:51:19.078Z,100.00
2019-03-19T22:56:24.841Z,100.00
2019-03-19T23:01:49.695Z,100.00
2019-03-19T23:06:53.772Z,100.00
2019-03-19T23:22:50.066Z,100.00
2019-03-19T23:27:54.529Z,100.00
2019-03-19T23:32:58.579Z,100.00
2019-03-19T23:38:04.649Z,100.00
2019-03-19T23:43:08.713Z,100.00
2019-03-19T23:48:12.777Z,100.00
2019-03-19T23:53:16.826Z,100.00
2019-03-19T23:58:20.895Z,100.00
